createdAt,value
2023-03-12T00:00:11.213Z,99.90
2023-03-12T00:02:39.444Z,99.90
2023-03-12T00:05:08.041Z,99.90
2023-03-12T00:07:36.298Z,99.90
2023-03-12T00:10:04.558Z,99.90
2023-03-12T00:12:33.767Z,99.90
2023-03-12T00:15:02.373Z,99.90
2023-03-12T00:17:30.293Z,99.90
2023-03-12T00:19:58.098Z,99.90
2023-03-12T00:22:26.119Z,99.90
2023-03-12T00:24:55.251Z,99.90
2023-03-12T00:27:23.473Z,99.90
2023-03-12T00:29:52.756Z,99.90
2023-03-12T00:32:21.021Z,99.90
2023-03-12T00:34:52.465Z,99.90
2023-03-12T00:37:20.384Z,99.90
2023-03-12T00:39:48.467Z,99.90
2023-03-12T00:42:16.318Z,99.90
2023-03-12T00:44:44.387Z,99.90
2023-03-12T00:47:14.437Z,99.90
2023-03-12T00:49:42.409Z,99.90
2023-03-12T00:52:10.293Z,99.90
2023-03-12T00:54:38.148Z,99.90
2023-03-12T00:57:06.137Z,99.90
2023-03-12T00:59:34.023Z,99.90
2023-03-12T01:02:01.820Z,99.90
2023-03-12T01:04:31.036Z,99.90
2023-03-12T01:06:58.885Z,99.90
2023-03-12T01:09:26.683Z,99.90
2023-03-12T01:11:54.586Z,99.90
2023-03-12T01:14:22.503Z,99.90
2023-03-12T01:16:52.444Z,99.90
2023-03-12T01:19:20.671Z,99.90
2023-03-12T01:21:49.782Z,99.90
2023-03-12T01:24:17.607Z,99.90
2023-03-12T01:26:45.361Z,99.90
2023-03-12T01:29:13.179Z,99.90
2023-03-12T01:31:41.106Z,99.90
2023-03-12T01:34:12.268Z,99.90
2023-03-12T01:36:40.132Z,99.90
2023-03-12T01:39:09.206Z,99.90
2023-03-12T01:41:37.018Z,99.90
2023-03-12T01:44:05.801Z,99.90
2023-03-12T01:46:35.127Z,99.90
2023-03-12T01:49:08.051Z,99.90
2023-03-12T01:51:40.075Z,99.90
2023-03-12T01:54:14.544Z,99.90
2023-03-12T01:56:43.241Z,99.90
2023-03-12T01:59:16.720Z,99.90
2023-03-12T02:01:45.267Z,99.90
2023-03-12T02:04:13.901Z,99.90
2023-03-12T02:06:49.275Z,99.90
2023-03-12T02:09:21.393Z,99.90
2023-03-12T02:11:49.294Z,99.90
2023-03-12T02:14:17.553Z,99.90
2023-03-12T02:16:45.529Z,99.90
2023-03-12T02:19:20.290Z,99.90
2023-03-12T02:21:48.099Z,99.90
2023-03-12T02:24:25.130Z,99.90
2023-03-12T02:26:54.301Z,99.90
2023-03-12T02:29:22.311Z,99.90
2023-03-12T02:31:53.512Z,99.90
2023-03-12T02:34:21.405Z,99.90
2023-03-12T02:36:49.982Z,99.90
2023-03-12T02:39:18.813Z,99.90
2023-03-12T02:41:53.442Z,99.90
2023-03-12T02:44:23.882Z,99.90
2023-03-12T02:46:53.843Z,99.90
2023-03-12T02:49:23.107Z,99.90
2023-03-12T02:51:52.170Z,99.90
2023-03-12T02:54:21.662Z,99.90
2023-03-12T02:56:50.180Z,99.90
2023-03-12T02:59:18.067Z,99.90
2023-03-12T03:01:47.399Z,99.90
2023-03-12T03:04:15.216Z,99.90
2023-03-12T03:06:45.280Z,99.90
2023-03-12T03:09:13.039Z,99.90
2023-03-12T03:11:41.295Z,99.90
2023-03-12T03:14:10.053Z,99.90
2023-03-12T03:16:37.853Z,99.90
2023-03-12T03:19:07.307Z,99.90
2023-03-12T03:21:35.203Z,99.90
2023-03-12T03:24:02.985Z,99.90
2023-03-12T03:26:30.862Z,99.90
2023-03-12T03:28:58.664Z,99.90
2023-03-12T03:31:26.482Z,99.90
2023-03-12T03:33:54.319Z,99.90
2023-03-12T03:36:24.119Z,99.90
2023-03-12T03:38:51.910Z,99.90
2023-03-12T03:41:21.177Z,99.90
2023-03-12T03:43:48.950Z,99.90
2023-03-12T03:46:17.107Z,99.90
2023-03-12T03:48:44.957Z,99.90
2023-03-12T03:51:14.325Z,99.90
2023-03-12T03:53:43.430Z,99.90
2023-03-12T03:56:13.141Z,99.90
2023-03-12T03:58:40.906Z,99.90
2023-03-12T04:01:09.044Z,99.90
2023-03-12T04:03:37.098Z,99.90
2023-03-12T04:06:07.296Z,99.90
2023-03-12T04:08:36.981Z,99.90
2023-03-12T04:11:09.772Z,99.90
2023-03-12T04:13:38.080Z,99.90
2023-03-12T04:16:06.497Z,99.90
2023-03-12T04:18:35.943Z,99.90
2023-03-12T04:21:03.832Z,99.90
2023-03-12T04:23:31.731Z,99.90
2023-03-12T04:25:59.732Z,99.90
2023-03-12T04:28:28.848Z,99.90
2023-03-12T04:30:56.867Z,99.90
2023-03-12T04:33:24.652Z,99.90
2023-03-12T04:35:53.048Z,99.90
2023-03-12T04:38:22.130Z,99.90
2023-03-12T04:40:59.668Z,99.90
2023-03-12T04:43:29.857Z,99.90
2023-03-12T04:45:57.756Z,99.90
2023-03-12T04:48:26.404Z,99.90
2023-03-12T04:50:54.877Z,99.90
2023-03-12T04:53:23.300Z,99.90
2023-03-12T04:55:51.496Z,99.90
2023-03-12T04:58:20.342Z,99.90
2023-03-12T05:00:50.344Z,99.90
2023-03-12T05:03:18.869Z,99.90
2023-03-12T05:05:46.638Z,99.90
2023-03-12T05:08:14.445Z,99.90
2023-03-12T05:10:45.061Z,99.90
2023-03-12T05:13:17.086Z,99.90
2023-03-12T05:15:45.297Z,99.90
2023-03-12T05:18:14.638Z,99.90
2023-03-12T05:20:42.397Z,99.90
2023-03-12T05:23:10.186Z,99.90
2023-03-12T05:25:40.316Z,99.90
2023-03-12T05:28:08.317Z,99.90
2023-03-12T05:30:36.161Z,99.90
2023-03-12T05:33:04.056Z,99.90
2023-03-12T05:35:33.188Z,99.90
2023-03-12T05:38:01.029Z,99.90
2023-03-12T05:40:28.827Z,99.90
2023-03-12T05:42:56.592Z,99.90
2023-03-12T05:45:24.366Z,99.90
2023-03-12T05:47:52.098Z,99.90
2023-03-12T05:50:20.005Z,99.90
2023-03-12T05:52:49.094Z,99.90
2023-03-12T05:55:17.076Z,99.90
2023-03-12T05:57:45.243Z,99.90
2023-03-12T06:00:15.034Z,99.90
2023-03-12T06:02:45.341Z,99.90
2023-03-12T06:05:13.674Z,99.90
2023-03-12T06:07:41.498Z,99.90
2023-03-12T06:10:12.005Z,99.90
2023-03-12T06:12:39.897Z,99.90
2023-03-12T06:15:08.576Z,99.90
2023-03-12T06:17:36.354Z,99.90
2023-03-12T06:20:04.363Z,99.90
2023-03-12T06:22:32.162Z,99.90
2023-03-12T06:25:00.052Z,99.90
2023-03-12T06:27:29.178Z,99.90
2023-03-12T06:29:57.188Z,99.90
2023-03-12T06:32:26.028Z,99.90
2023-03-12T06:34:53.852Z,99.90
2023-03-12T06:37:21.623Z,99.90
2023-03-12T06:39:49.362Z,99.90
2023-03-12T06:42:18.388Z,99.90
2023-03-12T06:44:47.539Z,99.90
2023-03-12T06:47:17.607Z,99.90
2023-03-12T06:49:45.559Z,99.90
2023-03-12T06:52:13.363Z,99.90
2023-03-12T06:54:41.134Z,99.90
2023-03-12T06:57:08.991Z,99.90
2023-03-12T06:59:36.769Z,99.90
2023-03-12T07:02:06.110Z,99.90
2023-03-12T07:04:33.896Z,99.90
2023-03-12T07:07:01.670Z,99.90
2023-03-12T07:09:29.476Z,99.90
2023-03-12T07:11:57.253Z,99.90
2023-03-12T07:14:25.014Z,99.90
2023-03-12T07:16:52.846Z,99.90
2023-03-12T07:19:21.949Z,99.90
2023-03-12T07:21:49.711Z,99.90
2023-03-12T07:24:17.465Z,99.90
2023-03-12T07:26:45.930Z,99.90
2023-03-12T07:29:13.834Z,99.90
2023-03-12T07:31:41.698Z,99.90
2023-03-12T07:34:09.671Z,99.90
2023-03-12T07:36:38.991Z,99.90
2023-03-12T07:39:06.868Z,99.90
2023-03-12T07:41:37.165Z,99.90
2023-03-12T07:44:05.008Z,99.90
2023-03-12T07:46:32.934Z,99.90
2023-03-12T07:49:00.851Z,99.90
2023-03-12T07:51:28.838Z,99.90
2023-03-12T07:53:58.122Z,99.90
2023-03-12T07:56:26.066Z,99.90
2023-03-12T07:58:54.161Z,99.90
2023-03-12T08:01:22.123Z,99.90
2023-03-12T08:03:50.120Z,99.90
2023-03-12T08:06:17.911Z,99.90
2023-03-12T08:08:45.721Z,99.90
2023-03-12T08:11:14.831Z,99.90
2023-03-12T08:13:42.670Z,99.90
2023-03-12T08:16:10.600Z,99.90
2023-03-12T08:18:38.869Z,99.90
2023-03-12T08:21:07.083Z,99.90
2023-03-12T08:23:35.551Z,99.90
2023-03-12T08:26:03.327Z,99.90
2023-03-12T08:28:32.476Z,99.90
2023-03-12T08:31:02.200Z,99.90
2023-03-12T08:33:30.004Z,99.90
2023-03-12T08:35:57.882Z,99.90
2023-03-12T08:38:25.990Z,99.90
2023-03-12T08:40:58.070Z,99.90
2023-03-12T08:43:29.058Z,99.90
2023-03-12T08:45:59.149Z,99.90
2023-03-12T08:48:27.500Z,99.90
2023-03-12T08:50:57.114Z,99.90
2023-03-12T08:53:25.292Z,99.90
2023-03-12T08:55:53.815Z,99.90
2023-03-12T08:58:21.966Z,99.90
2023-03-12T09:00:49.831Z,99.90
2023-03-12T09:03:19.008Z,99.90
2023-03-12T09:05:46.834Z,99.90
2023-03-12T09:08:15.461Z,96.90
2023-03-12T09:10:48.877Z,96.50
2023-03-12T09:13:16.846Z,96.30
2023-03-12T09:15:44.642Z,96.10
2023-03-12T09:18:12.542Z,96.90
2023-03-12T09:20:43.206Z,97.30
2023-03-12T09:23:10.990Z,97.70
2023-03-12T09:25:38.742Z,96.20
2023-03-12T09:28:06.486Z,96.00
2023-03-12T09:30:34.320Z,95.20
2023-03-12T09:33:02.142Z,95.80
2023-03-12T09:35:31.237Z,95.90
2023-03-12T09:38:00.933Z,97.40
2023-03-12T09:40:31.680Z,98.60
2023-03-12T09:43:01.178Z,99.10
2023-03-12T09:45:31.824Z,99.80
2023-03-12T09:48:01.830Z,99.90
2023-03-12T09:50:33.306Z,99.90
2023-03-12T09:53:05.497Z,99.90
2023-03-12T09:55:37.791Z,99.90
2023-03-12T09:58:11.035Z,99.90
2023-03-12T10:00:38.806Z,99.90
2023-03-12T10:03:23.819Z,99.90
2023-03-12T10:06:05.193Z,99.90
2023-03-12T10:08:44.792Z,99.90
2023-03-12T10:11:25.236Z,99.90
2023-03-12T10:14:08.737Z,99.90
2023-03-12T10:16:55.558Z,99.90
2023-03-12T10:19:36.847Z,99.90
2023-03-12T10:22:15.273Z,99.90
2023-03-12T10:24:56.328Z,99.90
2023-03-12T10:27:28.870Z,99.90
2023-03-12T10:29:57.176Z,99.90
2023-03-12T10:32:31.004Z,99.90
2023-03-12T10:35:04.057Z,99.90
2023-03-12T10:37:37.429Z,99.90
2023-03-12T10:40:08.882Z,99.90
2023-03-12T10:42:36.625Z,99.90
2023-03-12T10:45:20.758Z,99.90
2023-03-12T10:47:53.133Z,99.90
2023-03-12T10:50:23.035Z,99.90
2023-03-12T10:52:52.568Z,99.90
2023-03-12T10:55:27.341Z,99.90
2023-03-12T10:57:55.405Z,99.90
2023-03-12T11:00:25.497Z,99.90
2023-03-12T11:03:03.326Z,99.90
2023-03-12T11:05:34.103Z,99.90
2023-03-12T11:08:03.720Z,99.90
2023-03-12T11:10:43.739Z,99.90
2023-03-12T11:13:29.999Z,99.90
2023-03-12T11:16:00.274Z,99.90
2023-03-12T11:18:32.082Z,99.90
2023-03-12T11:21:16.498Z,99.90
2023-03-12T11:23:48.161Z,99.90
2023-03-12T11:26:20.685Z,99.90
2023-03-12T11:28:50.876Z,99.90
2023-03-12T11:31:25.128Z,99.90
2023-03-12T11:33:58.161Z,99.90
2023-03-12T11:36:46.544Z,99.90
2023-03-12T11:39:23.270Z,99.90
2023-03-12T11:42:07.960Z,99.90
2023-03-12T11:44:45.686Z,99.90
2023-03-12T11:47:30.493Z,99.90
2023-03-12T11:50:18.731Z,99.90
2023-03-12T11:53:00.413Z,99.90
2023-03-12T11:55:43.421Z,99.90
2023-03-12T11:58:31.126Z,99.90
2023-03-12T12:01:06.112Z,99.90
2023-03-12T12:03:55.818Z,99.90
2023-03-12T12:06:31.595Z,99.90
2023-03-12T12:09:22.400Z,99.90
2023-03-12T12:12:05.560Z,99.90
2023-03-12T12:14:53.463Z,99.90
2023-03-12T12:17:32.311Z,99.90
2023-03-12T12:20:21.485Z,99.90
2023-03-12T12:23:00.638Z,99.90
2023-03-12T12:25:40.493Z,99.90
2023-03-12T12:28:23.879Z,99.90
2023-03-12T12:31:05.647Z,99.90
2023-03-12T12:33:49.364Z,99.90
2023-03-12T12:36:18.482Z,99.90
2023-03-12T12:38:51.688Z,99.90
2023-03-12T12:41:24.834Z,99.90
2023-03-12T12:43:56.624Z,99.90
2023-03-12T12:46:31.093Z,99.90
2023-03-12T12:49:02.289Z,99.90
2023-03-12T12:51:33.778Z,99.90
2023-03-12T12:54:05.979Z,99.90
2023-03-12T12:56:41.965Z,99.90
2023-03-12T12:59:30.404Z,99.90
2023-03-12T13:02:01.229Z,99.90
2023-03-12T13:04:33.436Z,99.90
2023-03-12T13:07:04.354Z,99.90
2023-03-12T13:09:41.541Z,99.90
2023-03-12T13:12:20.792Z,99.90
2023-03-12T13:14:49.914Z,99.90
2023-03-12T13:17:28.989Z,99.90
2023-03-12T13:20:10.785Z,99.90
2023-03-12T13:22:53.566Z,99.90
2023-03-12T13:25:37.300Z,99.90
2023-03-12T13:28:32.418Z,99.90
2023-03-12T13:31:00.942Z,99.90
2023-03-12T13:33:42.043Z,99.90
2023-03-12T13:36:24.260Z,99.90
2023-03-12T13:38:58.814Z,99.90
2023-03-12T13:41:35.482Z,99.90
2023-03-12T13:44:29.961Z,99.90
2023-03-12T13:47:03.321Z,99.90
2023-03-12T13:49:42.154Z,99.90
2023-03-12T13:52:23.789Z,99.90
2023-03-12T13:55:01.510Z,99.90
2023-03-12T13:57:39.963Z,99.90
2023-03-12T14:00:16.299Z,99.90
2023-03-12T14:02:50.500Z,99.90
2023-03-12T14:05:21.241Z,99.90
2023-03-12T14:08:29.662Z,99.90
2023-03-12T14:11:09.611Z,99.90
2023-03-12T14:13:48.703Z,99.90
2023-03-12T14:16:23.748Z,99.90
2023-03-12T14:18:53.543Z,99.90
2023-03-12T14:21:24.992Z,99.90
2023-03-12T14:23:57.731Z,99.90
2023-03-12T14:26:28.180Z,99.90
2023-03-12T14:29:01.324Z,99.90
2023-03-12T14:31:31.105Z,99.90
2023-03-12T14:34:03.927Z,99.90
2023-03-12T14:36:39.712Z,99.90
2023-03-12T14:39:20.078Z,99.90
2023-03-12T14:41:52.798Z,99.90
2023-03-12T14:44:24.248Z,99.90
2023-03-12T14:46:59.931Z,99.90
2023-03-12T14:49:28.587Z,99.90
2023-03-12T14:51:58.053Z,99.90
2023-03-12T14:54:28.493Z,99.90
2023-03-12T14:56:56.355Z,99.90
2023-03-12T14:59:27.753Z,99.90
2023-03-12T15:02:00.267Z,99.90
2023-03-12T15:04:28.777Z,99.90
2023-03-12T15:07:00.840Z,99.90
2023-03-12T15:09:31.105Z,99.90
2023-03-12T15:12:01.526Z,99.90
2023-03-12T15:14:33.818Z,99.90
2023-03-12T15:17:02.671Z,99.90
2023-03-12T15:19:33.969Z,99.90
2023-03-12T15:22:04.923Z,99.90
2023-03-12T15:24:40.529Z,99.90
2023-03-12T15:27:23.944Z,99.90
2023-03-12T15:29:52.762Z,99.90
2023-03-12T15:32:24.635Z,99.90
2023-03-12T15:34:54.063Z,99.90
2023-03-12T15:37:29.470Z,99.90
2023-03-12T15:39:57.834Z,99.90
2023-03-12T15:42:27.435Z,99.90
2023-03-12T15:44:57.580Z,99.90
2023-03-12T15:47:28.711Z,99.90
2023-03-12T15:49:59.145Z,99.90
2023-03-12T15:52:31.029Z,99.90
2023-03-12T15:55:05.236Z,99.90
2023-03-12T15:57:34.138Z,99.90
2023-03-12T16:00:23.813Z,99.90
2023-03-12T16:02:55.072Z,99.90
2023-03-12T16:05:25.946Z,99.90
2023-03-12T16:07:55.246Z,99.90
2023-03-12T16:10:25.472Z,99.90
2023-03-12T16:12:59.406Z,99.90
2023-03-12T16:15:31.042Z,99.90
2023-03-12T16:17:59.153Z,99.90
2023-03-12T16:20:27.272Z,99.90
2023-03-12T16:22:56.581Z,99.90
2023-03-12T16:25:25.489Z,99.90
2023-03-12T16:27:56.316Z,99.90
2023-03-12T16:30:26.981Z,99.90
2023-03-12T16:32:54.979Z,99.90
2023-03-12T16:35:23.085Z,99.90
2023-03-12T16:37:51.093Z,99.90
2023-03-12T16:40:32.603Z,99.90
2023-03-12T16:43:02.625Z,99.90
2023-03-12T16:45:31.530Z,99.90
2023-03-12T16:48:01.258Z,99.90
2023-03-12T16:50:29.714Z,99.90
2023-03-12T16:52:59.852Z,99.90
2023-03-12T16:55:34.790Z,99.90
2023-03-12T16:58:05.106Z,99.90
2023-03-12T17:00:35.305Z,99.90
2023-03-12T17:03:03.065Z,99.90
2023-03-12T17:05:31.474Z,99.90
2023-03-12T17:07:59.903Z,99.90
2023-03-12T17:10:29.015Z,99.90
2023-03-12T17:12:56.876Z,99.90
2023-03-12T17:15:26.740Z,99.90
2023-03-12T17:17:55.740Z,99.90
2023-03-12T17:20:25.266Z,99.90
2023-03-12T17:22:53.125Z,99.90
2023-03-12T17:25:23.766Z,99.90
2023-03-12T17:27:53.272Z,99.90
2023-03-12T17:30:21.951Z,99.90
2023-03-12T17:32:50.472Z,99.90
2023-03-12T17:35:19.362Z,99.90
2023-03-12T17:37:48.289Z,99.90
2023-03-12T17:40:16.725Z,99.90
2023-03-12T17:42:44.627Z,99.90
2023-03-12T17:45:13.859Z,99.90
2023-03-12T17:47:41.589Z,99.90
2023-03-12T17:50:10.752Z,99.90
2023-03-12T17:52:38.481Z,99.90
2023-03-12T17:55:08.927Z,99.90
2023-03-12T17:57:37.653Z,99.90
2023-03-12T18:00:11.406Z,99.90
2023-03-12T18:02:41.672Z,99.90
2023-03-12T18:05:11.064Z,99.90
2023-03-12T18:07:39.107Z,99.90
2023-03-12T18:10:08.705Z,99.90
2023-03-12T18:12:37.866Z,99.90
2023-03-12T18:15:06.058Z,99.90
2023-03-12T18:17:33.960Z,99.90
2023-03-12T18:20:08.205Z,99.90
2023-03-12T18:22:36.510Z,99.90
2023-03-12T18:25:04.592Z,99.90
2023-03-12T18:27:32.407Z,99.90
2023-03-12T18:30:00.165Z,99.90
2023-03-12T18:32:27.952Z,99.90
2023-03-12T18:34:55.907Z,99.90
2023-03-12T18:37:25.077Z,99.90
2023-03-12T18:39:52.911Z,99.90
2023-03-12T18:42:20.830Z,99.90
2023-03-12T18:44:50.906Z,99.90
2023-03-12T18:47:18.784Z,99.90
2023-03-12T18:49:46.552Z,99.90
2023-03-12T18:52:14.309Z,99.90
2023-03-12T18:54:43.504Z,99.90
2023-03-12T18:57:12.326Z,99.90
2023-03-12T18:59:45.016Z,99.90
2023-03-12T19:02:13.161Z,99.90
2023-03-12T19:04:41.067Z,99.90
2023-03-12T19:07:10.551Z,99.90
2023-03-12T19:09:38.348Z,99.90
2023-03-12T19:12:07.782Z,99.90
2023-03-12T19:14:35.523Z,99.90
2023-03-12T19:17:03.420Z,99.90
2023-03-12T19:19:31.210Z,99.90
2023-03-12T19:21:59.062Z,99.90
2023-03-12T19:24:27.000Z,99.90
2023-03-12T19:26:54.779Z,99.90
2023-03-12T19:29:23.981Z,99.90
2023-03-12T19:31:51.826Z,99.90
2023-03-12T19:34:19.870Z,99.90
2023-03-12T19:36:47.625Z,99.90
2023-03-12T19:39:22.807Z,99.90
2023-03-12T19:41:51.498Z,99.90
2023-03-12T19:44:19.250Z,99.90
2023-03-12T19:46:48.419Z,99.90
2023-03-12T19:49:16.183Z,99.90
2023-03-12T19:51:43.925Z,99.90
2023-03-12T19:54:11.721Z,99.90
2023-03-12T19:56:39.496Z,99.90
2023-03-12T19:59:07.283Z,99.90
2023-03-12T20:01:35.047Z,99.90
2023-03-12T20:04:07.724Z,99.90
2023-03-12T20:06:35.622Z,99.90
2023-03-12T20:09:05.110Z,99.90
2023-03-12T20:11:33.459Z,99.90
2023-03-12T20:14:01.226Z,99.90
2023-03-12T20:16:29.053Z,99.90
2023-03-12T20:18:56.969Z,99.90
2023-03-12T20:21:26.094Z,99.90
2023-03-12T20:23:56.148Z,99.90
2023-03-12T20:26:24.294Z,99.90
2023-03-12T20:28:52.156Z,99.90
2023-03-12T20:31:20.247Z,99.90
2023-03-12T20:33:48.059Z,99.90
2023-03-12T20:36:15.837Z,99.90
2023-03-12T20:38:44.952Z,99.90
2023-03-12T20:41:14.446Z,99.90
2023-03-12T20:43:42.700Z,99.90
2023-03-12T20:46:10.908Z,99.90
2023-03-12T20:48:38.729Z,99.90
2023-03-12T20:51:06.874Z,99.90
2023-03-12T20:53:34.626Z,99.90
2023-03-12T20:56:06.924Z,99.90
2023-03-12T20:58:35.137Z,99.90
2023-03-12T21:01:03.136Z,99.90
2023-03-12T21:03:30.971Z,99.90
2023-03-12T21:06:00.548Z,99.90
2023-03-12T21:08:29.511Z,99.90
2023-03-12T21:10:57.514Z,99.90
2023-03-12T21:13:26.746Z,99.90
2023-03-12T21:15:54.524Z,99.90
2023-03-12T21:18:22.294Z,99.90
2023-03-12T21:20:50.285Z,99.90
2023-03-12T21:23:18.185Z,99.90
2023-03-12T21:25:46.257Z,99.90
2023-03-12T21:28:14.019Z,99.90
2023-03-12T21:30:43.178Z,99.90
2023-03-12T21:33:10.949Z,99.90
2023-03-12T21:35:38.769Z,99.90
2023-03-12T21:38:06.546Z,99.90
2023-03-12T21:40:35.720Z,99.90
2023-03-12T21:43:03.844Z,99.90
2023-03-12T21:45:31.979Z,99.90
2023-03-12T21:48:01.090Z,99.90
2023-03-12T21:50:28.835Z,99.90
2023-03-12T21:52:56.622Z,99.90
2023-03-12T21:55:24.422Z,99.90
2023-03-12T21:57:52.227Z,99.90
2023-03-12T22:00:20.510Z,99.90
2023-03-12T22:02:48.369Z,99.90
2023-03-12T22:05:17.607Z,99.90
2023-03-12T22:07:45.366Z,99.90
2023-03-12T22:10:13.306Z,99.90
2023-03-12T22:12:41.191Z,99.90
2023-03-12T22:15:10.048Z,99.90
2023-03-12T22:17:37.830Z,99.90
2023-03-12T22:20:07.789Z,99.90
2023-03-12T22:22:36.902Z,99.90
2023-03-12T22:25:05.101Z,99.90
2023-03-12T22:27:32.879Z,99.90
2023-03-12T22:30:00.670Z,99.90
2023-03-12T22:32:29.049Z,99.90
2023-03-12T22:34:56.819Z,99.90
2023-03-12T22:37:24.619Z,99.90
2023-03-12T22:39:58.042Z,99.90
2023-03-12T22:42:25.824Z,99.90
2023-03-12T22:44:53.580Z,99.90
2023-03-12T22:47:21.330Z,99.90
2023-03-12T22:49:49.309Z,99.90
2023-03-12T22:52:17.099Z,99.90
2023-03-12T22:54:44.855Z,99.90
2023-03-12T22:57:13.951Z,99.90
2023-03-12T22:59:41.739Z,99.90
2023-03-12T23:02:09.528Z,99.90
2023-03-12T23:04:37.451Z,99.90
2023-03-12T23:07:14.034Z,99.90
2023-03-12T23:09:43.332Z,99.90
2023-03-12T23:12:11.110Z,99.90
2023-03-12T23:14:40.229Z,99.90
2023-03-12T23:17:09.464Z,99.90
2023-03-12T23:19:37.253Z,99.90
2023-03-12T23:22:05.234Z,99.90
2023-03-12T23:24:33.051Z,99.90
2023-03-12T23:27:00.979Z,99.90
2023-03-12T23:29:30.471Z,99.90
2023-03-12T23:31:59.653Z,99.90
2023-03-12T23:34:27.687Z,99.90
2023-03-12T23:36:55.612Z,99.90
2023-03-12T23:39:23.382Z,99.90
2023-03-12T23:41:51.116Z,99.90
2023-03-12T23:44:18.897Z,99.90
2023-03-12T23:46:46.752Z,99.90
2023-03-12T23:49:15.825Z,99.90
2023-03-12T23:51:43.591Z,99.90
2023-03-12T23:54:11.351Z,99.90
2023-03-12T23:56:41.103Z,99.90
2023-03-12T23:59:10.538Z,99.90
